Time;durP1;ratioP1;P1;durP2;ratioP2;P2;SDS_P1;SDS_P2;PMS_P1;PMS_P2;Temp;Humidity;BMP_temperature;BMP_pressure;BME280_temperature;BME280_humidity;BME280_pressure;Samples;Min_cycle;Max_cycle;Signal;HPM_P1;HPM_P2
2021/09/19 00:02:22;;;;;;;;;10.75;10.75;;;;;;;;4828108;29;47262;-75
2021/09/19 00:04:47;;;;;;;;;6.67;6.67;;;;;;;;4825979;29;45682;-75
2021/09/19 00:07:12;;;;;;;;;10.50;8.25;;;;;;;;4833439;29;45936;-76
2021/09/19 00:09:37;;;;;;;;;8.75;8.00;;;;;;;;4820833;29;53294;-75
2021/09/19 00:12:03;;;;;;;;;12.33;9.67;;;;;;;;4833966;29;45653;-75
2021/09/19 00:14:28;;;;;;;;;11.00;9.00;;;;;;;;4833633;29;45554;-75
2021/09/19 00:16:53;;;;;;;;;9.25;9.00;;;;;;;;4709652;29;1515332;-75
2021/09/19 00:19:19;;;;;;;;;9.25;8.00;;;;;;;;4716783;29;3568492;-76
2021/09/19 00:21:45;;;;;;;;;9.00;8.00;;;;;;;;4833560;29;45498;-74
2021/09/19 00:24:11;;;;;;;;;8.00;8.00;;;;;;;;4836546;29;45616;-74
2021/09/19 00:26:36;;;;;;;;;7.50;7.25;;;;;;;;4839693;29;46159;-74
2021/09/19 00:29:01;;;;;;;;;8.75;7.00;;;;;;;;4839913;29;46311;-74
2021/09/19 00:31:26;;;;;;;;;8.00;8.00;;;;;;;;4838242;29;45598;-73
2021/09/19 00:33:51;;;;;;;;;8.50;8.25;;;;;;;;4825105;29;45825;-74
2021/09/19 00:36:17;;;;;;;;;11.25;9.25;;;;;;;;4830557;29;46564;-75
2021/09/19 00:38:42;;;;;;;;;9.25;8.25;;;;;;;;4826428;29;45595;-74
2021/09/19 00:41:07;;;;;;;;;12.75;9.25;;;;;;;;4829015;29;45567;-74
2021/09/19 00:43:33;;;;;;;;;10.67;10.67;;;;;;;;4832542;29;45702;-74
2021/09/19 00:45:58;;;;;;;;;10.75;10.75;;;;;;;;4832449;29;46246;-74
2021/09/19 00:48:23;;;;;;;;;12.00;8.75;;;;;;;;4833052;29;45669;-74
2021/09/19 00:50:49;;;;;;;;;9.00;9.00;;;;;;;;4827445;29;46030;-74
2021/09/19 00:53:14;;;;;;;;;10.00;10.00;;;;;;;;4826938;29;45833;-73
2021/09/19 00:55:41;;;;;;;;;9.25;9.00;;;;;;;;4832759;29;53073;-74
2021/09/19 00:58:10;;;;;;;;;11.00;10.75;;;;;;;;4837931;29;45645;-74
2021/09/19 01:00:36;;;;;;;;;12.25;9.75;;;;;;;;4836159;29;45661;-74
2021/09/19 01:03:01;;;;;;;;;10.75;9.00;;;;;;;;4837148;29;47630;-73
2021/09/19 01:05:27;;;;;;;;;10.75;10.25;;;;;;;;4837913;29;46133;-74
2021/09/19 01:07:52;;;;;;;;;9.25;9.25;;;;;;;;4840603;29;46675;-74
2021/09/19 01:10:20;;;;;;;;;13.25;10.00;;;;;;;;4969301;23;45572;-74
2021/09/19 01:12:46;;;;;;;;;10.75;9.50;;;;;;;;4870142;23;46800;-96
2021/09/19 01:15:11;;;;;;;;;10.50;7.50;;;;;;;;4824016;23;46714;-75
2021/09/19 01:17:40;;;;;;;;;8.75;8.75;;;;;;;;4830387;29;46033;-75
2021/09/19 01:20:15;;;;;;;;;11.00;8.00;;;;;;;;4831119;29;46036;-75
2021/09/19 01:22:43;;;;;;;;;9.50;9.50;;;;;;;;4828286;29;45664;-75
2021/09/19 01:25:10;;;;;;;;;11.50;10.25;;;;;;;;4831151;29;47003;-76
2021/09/19 01:27:36;;;;;;;;;10.50;10.00;;;;;;;;4829577;29;47335;-76
2021/09/19 01:30:01;;;;;;;;;11.75;10.00;;;;;;;;4829147;29;47057;-75
2021/09/19 01:32:27;;;;;;;;;9.75;9.25;;;;;;;;4828462;29;46955;-76
2021/09/19 01:34:52;;;;;;;;;9.00;8.25;;;;;;;;4830321;29;46325;-75
2021/09/19 01:37:18;;;;;;;;;11.00;9.00;;;;;;;;4824974;29;45583;-75
2021/09/19 01:39:44;;;;;;;;;8.00;8.00;;;;;;;;4830835;29;45838;-76
2021/09/19 01:42:09;;;;;;;;;12.75;11.75;;;;;;;;4819391;29;46542;-76
2021/09/19 01:44:35;;;;;;;;;11.00;11.00;;;;;;;;4832391;29;46459;-76
2021/09/19 01:47:00;;;;;;;;;10.50;10.50;;;;;;;;4835802;29;45512;-75
2021/09/19 01:49:26;;;;;;;;;10.00;10.00;;;;;;;;4822004;29;46637;-75
2021/09/19 01:51:51;;;;;;;;;10.00;9.00;;;;;;;;4836664;29;45590;-75
2021/09/19 01:54:16;;;;;;;;;10.67;8.67;;;;;;;;4833333;29;45723;-75
2021/09/19 01:56:42;;;;;;;;;8.00;7.00;;;;;;;;4836571;29;46885;-76
2021/09/19 01:59:07;;;;;;;;;10.50;10.50;;;;;;;;4832529;29;45872;-75
2021/09/19 02:01:32;;;;;;;;;9.50;8.00;;;;;;;;4835858;29;45514;-76
2021/09/19 02:03:58;;;;;;;;;11.00;9.00;;;;;;;;4835032;29;45969;-75
2021/09/19 02:06:23;;;;;;;;;12.75;11.50;;;;;;;;4833744;29;45967;-75
2021/09/19 02:08:49;;;;;;;;;8.33;7.00;;;;;;;;4836874;29;49769;-75
2021/09/19 02:11:15;;;;;;;;;9.50;9.25;;;;;;;;4831839;29;53782;-75
2021/09/19 02:13:41;;;;;;;;;11.75;9.75;;;;;;;;4833449;29;46667;-75
2021/09/19 02:16:06;;;;;;;;;11.00;10.75;;;;;;;;4835527;29;45898;-75
2021/09/19 02:18:32;;;;;;;;;9.00;9.00;;;;;;;;4832982;29;46024;-75
2021/09/19 02:20:58;;;;;;;;;8.75;8.75;;;;;;;;4833516;29;46287;-73
2021/09/19 02:23:23;;;;;;;;;8.75;8.75;;;;;;;;4829805;29;55177;-74
2021/09/19 02:25:49;;;;;;;;;12.25;9.50;;;;;;;;4829609;29;46629;-74
2021/09/19 02:28:16;;;;;;;;;15.00;11.25;;;;;;;;4834531;29;45530;-74
2021/09/19 02:30:42;;;;;;;;;11.00;10.00;;;;;;;;4828044;29;45575;-74
2021/09/19 02:33:07;;;;;;;;;10.00;10.00;;;;;;;;4829910;29;47536;-75
2021/09/19 02:35:32;;;;;;;;;11.25;9.75;;;;;;;;4830259;29;46167;-75
2021/09/19 02:37:57;;;;;;;;;11.00;9.67;;;;;;;;4834697;29;45527;-74
2021/09/19 02:40:23;;;;;;;;;11.33;10.00;;;;;;;;4834427;29;45669;-73
2021/09/19 02:42:50;;;;;;;;;12.75;10.00;;;;;;;;4835648;29;45918;-74
2021/09/19 02:45:15;;;;;;;;;12.25;12.25;;;;;;;;4833130;29;45546;-74
2021/09/19 02:47:40;;;;;;;;;12.25;11.00;;;;;;;;4824201;29;45822;-73
2021/09/19 02:50:07;;;;;;;;;10.75;10.25;;;;;;;;4833753;29;46806;-73
2021/09/19 02:52:32;;;;;;;;;11.50;10.00;;;;;;;;4833248;29;46716;-74
2021/09/19 02:54:58;;;;;;;;;10.67;10.00;;;;;;;;4832197;29;45945;-74
2021/09/19 02:57:23;;;;;;;;;12.00;11.25;;;;;;;;4830501;29;46184;-73
2021/09/19 02:59:48;;;;;;;;;12.00;9.00;;;;;;;;4829081;29;45595;-74
2021/09/19 03:02:13;;;;;;;;;10.50;9.25;;;;;;;;4831647;29;45478;-74
2021/09/19 03:04:39;;;;;;;;;11.75;11.75;;;;;;;;4829791;29;45763;-74
2021/09/19 03:07:04;;;;;;;;;11.33;11.33;;;;;;;;4832815;29;45470;-73
2021/09/19 03:09:29;;;;;;;;;10.75;9.25;;;;;;;;4829089;29;49558;-74
2021/09/19 03:11:54;;;;;;;;;12.00;9.67;;;;;;;;4833479;29;48469;-73
2021/09/19 03:14:20;;;;;;;;;15.67;12.00;;;;;;;;4832485;29;47494;-73
2021/09/19 03:16:45;;;;;;;;;12.00;8.75;;;;;;;;4833889;29;45777;-73
2021/09/19 03:19:10;;;;;;;;;10.75;10.50;;;;;;;;4834105;29;45578;-73
2021/09/19 03:21:35;;;;;;;;;12.67;11.33;;;;;;;;4829954;29;46889;-73
2021/09/19 03:24:00;;;;;;;;;12.00;12.00;;;;;;;;4829992;29;46090;-74
2021/09/19 03:26:26;;;;;;;;;8.67;8.67;;;;;;;;4832364;29;45947;-74
2021/09/19 03:28:51;;;;;;;;;15.25;13.00;;;;;;;;4829511;29;45579;-73
2021/09/19 03:31:16;;;;;;;;;12.00;10.25;;;;;;;;4832717;29;45877;-73
2021/09/19 03:33:42;;;;;;;;;12.00;11.33;;;;;;;;4830165;29;46332;-73
2021/09/19 03:36:07;;;;;;;;;9.00;9.00;;;;;;;;4834301;29;45460;-73
2021/09/19 03:38:32;;;;;;;;;12.33;10.67;;;;;;;;4827765;29;45628;-73
2021/09/19 03:40:57;;;;;;;;;11.25;9.00;;;;;;;;4827544;29;46313;-74
2021/09/19 03:43:23;;;;;;;;;11.50;11.50;;;;;;;;4831529;29;45599;-74
2021/09/19 03:45:48;;;;;;;;;11.33;10.67;;;;;;;;4817992;29;46045;-73
2021/09/19 03:48:13;;;;;;;;;15.00;13.33;;;;;;;;4817762;29;45693;-74
2021/09/19 03:50:38;;;;;;;;;15.75;12.50;;;;;;;;4826869;29;46489;-74
2021/09/19 03:53:04;;;;;;;;;11.50;11.50;;;;;;;;4829736;29;45749;-73
2021/09/19 03:55:30;;;;;;;;;12.25;12.25;;;;;;;;4836157;29;46438;-74
2021/09/19 03:57:56;;;;;;;;;9.75;9.00;;;;;;;;4828712;29;45567;-73
2021/09/19 04:00:21;;;;;;;;;10.00;9.50;;;;;;;;4828672;29;46358;-74
2021/09/19 04:02:46;;;;;;;;;13.00;10.67;;;;;;;;4836414;29;45626;-73
2021/09/19 04:07:50;;;;;;;;;15.00;11.75;;;;;;;;3821312;23;46136;-73
2021/09/19 04:10:15;;;;;;;;;15.00;13.75;;;;;;;;4828270;29;45634;-75
2021/09/19 04:12:40;;;;;;;;;10.00;10.00;;;;;;;;4825942;29;45677;-75
2021/09/19 04:15:06;;;;;;;;;12.50;10.50;;;;;;;;4832457;29;45627;-75
2021/09/19 04:17:31;;;;;;;;;14.50;13.25;;;;;;;;4828860;29;46487;-75
2021/09/19 04:19:57;;;;;;;;;13.25;13.25;;;;;;;;4828914;29;46353;-75
2021/09/19 04:22:24;;;;;;;;;15.00;13.00;;;;;;;;4826041;29;46007;-75
2021/09/19 04:24:50;;;;;;;;;15.50;14.00;;;;;;;;4832191;29;47507;-75
2021/09/19 04:27:15;;;;;;;;;14.00;12.00;;;;;;;;4828758;29;45652;-76
2021/09/19 04:29:40;;;;;;;;;14.67;12.00;;;;;;;;4831208;29;46411;-75
2021/09/19 04:32:06;;;;;;;;;15.25;13.75;;;;;;;;4830442;29;45561;-75
2021/09/19 04:34:31;;;;;;;;;18.33;12.67;;;;;;;;4838515;29;45774;-75
2021/09/19 04:36:56;;;;;;;;;13.50;13.00;;;;;;;;4840960;29;46617;-75
2021/09/19 04:39:21;;;;;;;;;14.33;14.00;;;;;;;;4951892;23;45850;-96
2021/09/19 04:41:47;;;;;;;;;14.33;13.00;;;;;;;;4844485;23;45851;-75
2021/09/19 04:44:12;;;;;;;;;16.00;13.00;;;;;;;;4792694;29;46788;-75
2021/09/19 04:46:37;;;;;;;;;13.25;11.50;;;;;;;;4792061;29;46068;-75
2021/09/19 04:49:03;;;;;;;;;14.00;14.00;;;;;;;;4794045;29;46867;-75
2021/09/19 04:51:28;;;;;;;;;12.25;12.25;;;;;;;;4791755;29;45977;-75
2021/09/19 04:53:53;;;;;;;;;13.25;12.50;;;;;;;;4790696;29;46519;-75
2021/09/19 04:56:19;;;;;;;;;10.75;10.75;;;;;;;;4797081;29;45864;-75
2021/09/19 04:58:44;;;;;;;;;15.00;11.67;;;;;;;;4794563;29;46040;-75
2021/09/19 05:01:09;;;;;;;;;13.75;12.00;;;;;;;;4787316;29;45642;-76
2021/09/19 05:03:35;;;;;;;;;13.75;11.75;;;;;;;;4793310;29;48193;-75
2021/09/19 05:06:00;;;;;;;;;12.00;12.00;;;;;;;;4792141;29;46116;-75
2021/09/19 05:08:25;;;;;;;;;11.50;11.50;;;;;;;;4782417;29;47137;-75
2021/09/19 05:10:51;;;;;;;;;12.33;12.00;;;;;;;;4794896;29;45565;-76
2021/09/19 05:13:16;;;;;;;;;14.25;12.00;;;;;;;;4798390;29;45875;-76
2021/09/19 05:15:41;;;;;;;;;14.33;12.33;;;;;;;;4795050;29;45588;-76
2021/09/19 05:18:07;;;;;;;;;14.75;12.75;;;;;;;;4792520;29;46125;-75
2021/09/19 05:20:32;;;;;;;;;13.00;13.00;;;;;;;;4794230;29;45591;-75
2021/09/19 05:22:57;;;;;;;;;15.50;11.75;;;;;;;;4793897;29;46161;-75
2021/09/19 05:25:22;;;;;;;;;14.50;11.50;;;;;;;;4799789;29;45614;-76
2021/09/19 05:27:50;;;;;;;;;16.75;14.25;;;;;;;;4797670;29;46084;-76
2021/09/19 05:30:15;;;;;;;;;13.75;12.25;;;;;;;;4795828;29;45713;-75
2021/09/19 05:32:41;;;;;;;;;14.00;13.00;;;;;;;;4793340;29;47684;-76
2021/09/19 05:35:06;;;;;;;;;16.67;12.00;;;;;;;;4794194;29;45799;-75
2021/09/19 05:37:31;;;;;;;;;15.50;11.00;;;;;;;;4797746;29;46676;-75
2021/09/19 05:39:56;;;;;;;;;14.33;11.00;;;;;;;;4797651;29;45556;-75
2021/09/19 05:42:22;;;;;;;;;13.75;12.00;;;;;;;;4793089;29;45546;-75
2021/09/19 05:44:47;;;;;;;;;16.00;12.67;;;;;;;;4796596;29;47409;-75
2021/09/19 05:47:12;;;;;;;;;12.00;11.67;;;;;;;;4793722;29;46469;-75
2021/09/19 05:49:37;;;;;;;;;13.33;11.00;;;;;;;;4795952;29;45595;-76
2021/09/19 05:52:03;;;;;;;;;11.75;11.00;;;;;;;;4801300;29;47334;-75
2021/09/19 05:54:28;;;;;;;;;11.50;11.50;;;;;;;;4793124;29;45950;-75
2021/09/19 05:56:53;;;;;;;;;13.67;12.00;;;;;;;;4800007;29;46162;-76
2021/09/19 05:59:18;;;;;;;;;13.25;12.50;;;;;;;;4793251;29;45757;-78
2021/09/19 06:01:43;;;;;;;;;13.33;11.00;;;;;;;;4796008;29;46081;-75
2021/09/19 06:04:09;;;;;;;;;13.33;12.67;;;;;;;;4797047;29;47058;-75
2021/09/19 06:06:34;;;;;;;;;13.33;13.33;;;;;;;;4799285;29;46522;-74
2021/09/19 06:08:59;;;;;;;;;14.75;13.25;;;;;;;;4797128;29;45873;-76
2021/09/19 06:11:24;;;;;;;;;11.25;10.00;;;;;;;;4807043;29;45523;-76
2021/09/19 06:13:52;;;;;;;;;14.75;14.75;;;;;;;;4807030;29;46224;-75
2021/09/19 06:21:49;;;;;;;;;13.00;11.50;;;;;;;;5010923;23;45901;-76
2021/09/19 06:24:14;;;;;;;;;13.00;12.25;;;;;;;;4828883;29;45612;-76
2021/09/19 06:26:39;;;;;;;;;11.25;11.25;;;;;;;;4829043;29;46781;-76
2021/09/19 06:29:08;;;;;;;;;15.00;15.00;;;;;;;;4828056;29;45763;-76
2021/09/19 06:31:33;;;;;;;;;25.50;21.00;;;;;;;;4835290;29;45870;-76
2021/09/19 06:33:58;;;;;;;;;24.00;21.67;;;;;;;;4826340;29;45622;-76
2021/09/19 06:36:24;;;;;;;;;29.00;24.50;;;;;;;;4825685;29;47243;-76
2021/09/19 06:38:49;;;;;;;;;31.00;26.50;;;;;;;;4829119;29;45690;-76
2021/09/19 06:41:14;;;;;;;;;31.00;28.33;;;;;;;;4831268;29;45772;-76
2021/09/19 06:48:52;;;;;;;;;17.25;15.00;;;;;;;;4877604;23;46196;-76
2021/09/19 06:51:17;;;;;;;;;15.25;14.75;;;;;;;;4842863;29;45707;-76
2021/09/19 06:53:43;;;;;;;;;14.00;13.00;;;;;;;;4843636;29;45594;-75
2021/09/19 06:56:08;;;;;;;;;20.00;15.00;;;;;;;;4847359;29;47178;-75
2021/09/19 06:58:33;;;;;;;;;13.33;12.33;;;;;;;;4846175;29;45847;-75
2021/09/19 07:05:57;;;;;;;;;15.25;12.75;;;;;;;;4834430;29;45790;-76
2021/09/19 07:08:22;;;;;;;;;12.67;12.67;;;;;;;;4838897;29;45752;-76
2021/09/19 07:10:47;;;;;;;;;13.00;12.00;;;;;;;;4838559;29;45938;-76
2021/09/19 07:13:13;;;;;;;;;11.75;9.75;;;;;;;;4841920;29;47237;-76
2021/09/19 07:15:39;;;;;;;;;12.75;11.75;;;;;;;;4838446;29;46088;-76
2021/09/19 07:18:04;;;;;;;;;11.50;11.50;;;;;;;;4837928;29;46418;-75
2021/09/19 07:20:30;;;;;;;;;13.33;11.33;;;;;;;;4846574;29;45986;-75
2021/09/19 07:22:55;;;;;;;;;14.00;12.00;;;;;;;;4838839;29;51437;-76
2021/09/19 07:25:20;;;;;;;;;14.00;12.00;;;;;;;;4843405;29;46294;-75
2021/09/19 07:27:46;;;;;;;;;14.75;12.00;;;;;;;;4841878;29;45702;-76
2021/09/19 07:30:11;;;;;;;;;15.25;13.25;;;;;;;;4838178;29;45675;-76
2021/09/19 07:32:36;;;;;;;;;11.25;11.25;;;;;;;;4839094;29;45713;-76
2021/09/19 07:35:02;;;;;;;;;12.50;12.25;;;;;;;;4839466;29;46227;-76
2021/09/19 07:42:38;;;;;;;;;9.50;9.50;;;;;;;;5723393;23;45947;-76
2021/09/19 07:45:04;;;;;;;;;17.25;12.00;;;;;;;;4843653;29;46770;-76
2021/09/19 07:47:30;;;;;;;;;11.50;11.50;;;;;;;;4836381;29;45660;-76
2021/09/19 07:50:00;;;;;;;;;13.00;11.00;;;;;;;;4849689;29;45419;-76
2021/09/19 07:55:49;;;;;;;;;11.75;10.75;;;;;;;;4849691;29;45555;-75
2021/09/19 07:58:42;;;;;;;;;16.75;15.00;;;;;;;;4839029;29;45736;-76
2021/09/19 08:01:07;;;;;;;;;13.50;12.25;;;;;;;;4844153;29;45854;-77
2021/09/19 08:11:18;;;;;;;;;15.00;12.50;;;;;;;;5628183;23;45928;-77
2021/09/19 08:13:43;;;;;;;;;15.50;15.00;;;;;;;;4855229;29;45859;-78
2021/09/19 08:16:09;;;;;;;;;21.00;17.25;;;;;;;;4922092;23;46093;-77
2021/09/19 08:21:13;;;;;;;;;16.25;13.50;;;;;;;;5688963;23;45893;-76
2021/09/19 08:23:38;;;;;;;;;12.75;12.00;;;;;;;;4836957;29;59855;-79
2021/09/19 08:26:03;;;;;;;;;13.50;13.50;;;;;;;;4841614;29;46521;-79
2021/09/19 08:33:39;;;;;;;;;16.75;14.25;;;;;;;;5175971;23;45614;-78
2021/09/19 08:36:04;;;;;;;;;13.75;13.75;;;;;;;;4837577;29;46209;-79
2021/09/19 08:38:29;;;;;;;;;13.50;10.75;;;;;;;;4823521;29;46191;-80
2021/09/19 08:40:55;;;;;;;;;18.75;15.50;;;;;;;;4841140;29;45543;-85
2021/09/19 08:43:20;;;;;;;;;15.50;12.00;;;;;;;;4869642;23;46858;-79
2021/09/19 08:45:47;;;;;;;;;16.50;15.00;;;;;;;;4838554;29;45509;-80
2021/09/19 08:48:12;;;;;;;;;17.00;14.75;;;;;;;;4839376;29;45592;-80
2021/09/19 08:50:38;;;;;;;;;16.00;15.25;;;;;;;;4826963;29;45740;-79
2021/09/19 08:53:03;;;;;;;;;16.33;13.67;;;;;;;;4845105;29;46333;-79
2021/09/19 08:55:28;;;;;;;;;15.75;15.50;;;;;;;;4844406;29;45557;-79
2021/09/19 08:57:53;;;;;;;;;16.00;15.00;;;;;;;;4837147;29;45590;-79
2021/09/19 09:00:18;;;;;;;;;20.75;15.50;;;;;;;;4839380;29;45799;-79
2021/09/19 09:02:48;;;;;;;;;17.00;12.00;;;;;;;;4841404;29;46189;-78
2021/09/19 09:05:39;;;;;;;;;14.75;14.00;;;;;;;;4831233;29;45663;-78
2021/09/19 09:08:06;;;;;;;;;15.75;15.00;;;;;;;;4837113;29;46043;-80
2021/09/19 09:10:34;;;;;;;;;16.00;14.50;;;;;;;;4842978;29;46264;-79
2021/09/19 09:13:00;;;;;;;;;19.75;16.50;;;;;;;;4838831;29;45870;-79
2021/09/19 09:15:36;;;;;;;;;17.25;13.00;;;;;;;;4837727;29;45541;-79
2021/09/19 09:18:04;;;;;;;;;15.75;15.75;;;;;;;;4841207;29;45662;-80
2021/09/19 09:20:49;;;;;;;;;14.75;14.00;;;;;;;;4831084;29;45883;-80
2021/09/19 09:23:27;;;;;;;;;17.75;15.00;;;;;;;;4825356;29;46551;-80
2021/09/19 09:26:11;;;;;;;;;14.50;13.50;;;;;;;;4810808;29;46777;-80
2021/09/19 09:28:37;;;;;;;;;16.25;16.25;;;;;;;;4832774;29;45707;-80
2021/09/19 09:31:03;;;;;;;;;15.50;14.50;;;;;;;;4824963;29;45743;-78
2021/09/19 09:33:28;;;;;;;;;20.25;16.75;;;;;;;;4808071;29;46036;-79
2021/09/19 09:35:53;;;;;;;;;17.00;15.00;;;;;;;;4812751;29;47202;-79
2021/09/19 09:38:20;;;;;;;;;17.75;17.75;;;;;;;;4827744;29;45505;-79
2021/09/19 09:40:45;;;;;;;;;18.50;16.50;;;;;;;;4827786;29;45631;-80
2021/09/19 09:43:12;;;;;;;;;14.50;14.25;;;;;;;;4828226;29;45625;-78
2021/09/19 09:45:39;;;;;;;;;17.75;14.50;;;;;;;;4827809;29;46590;-77
2021/09/19 09:48:23;;;;;;;;;18.50;15.50;;;;;;;;4835019;29;46068;-77
2021/09/19 09:50:48;;;;;;;;;19.50;15.75;;;;;;;;4833998;29;47057;-77
2021/09/19 09:53:13;;;;;;;;;18.75;16.50;;;;;;;;4818073;29;47898;-79
2021/09/19 09:55:43;;;;;;;;;17.67;16.67;;;;;;;;4925748;23;45878;-93
2021/09/19 09:58:09;;;;;;;;;20.00;18.75;;;;;;;;4863165;29;45790;-93
2021/09/19 10:00:35;;;;;;;;;19.25;19.25;;;;;;;;4858136;29;45648;-93
2021/09/19 10:03:01;;;;;;;;;20.25;17.50;;;;;;;;4847661;29;45481;-96
2021/09/19 10:05:28;;;;;;;;;20.25;17.00;;;;;;;;4862365;29;45449;-95
2021/09/19 10:07:53;;;;;;;;;19.25;17.00;;;;;;;;4857003;29;45417;-96
2021/09/19 10:10:21;;;;;;;;;17.50;15.00;;;;;;;;4848105;29;45170;-96
2021/09/19 10:12:47;;;;;;;;;16.75;16.25;;;;;;;;4863058;29;45760;-96
2021/09/19 10:15:13;;;;;;;;;16.25;15.75;;;;;;;;4861181;29;45771;-95
2021/09/19 10:17:38;;;;;;;;;16.25;15.00;;;;;;;;4852595;29;45533;-95
2021/09/19 10:20:14;;;;;;;;;14.25;13.25;;;;;;;;4869741;29;45796;-95
2021/09/19 10:22:55;;;;;;;;;13.75;13.75;;;;;;;;4865861;29;45616;-94
2021/09/19 10:25:33;;;;;;;;;16.25;14.00;;;;;;;;4865339;29;47032;-96
2021/09/19 10:28:17;;;;;;;;;12.50;12.00;;;;;;;;4865097;29;45623;-95
2021/09/19 10:31:01;;;;;;;;;16.00;15.25;;;;;;;;4849904;29;45590;-93
2021/09/19 10:33:39;;;;;;;;;16.00;14.00;;;;;;;;4867882;29;45537;-93
2021/09/19 10:36:11;;;;;;;;;15.75;14.00;;;;;;;;4848517;29;47074;-93
2021/09/19 10:38:37;;;;;;;;;14.75;14.75;;;;;;;;4862343;29;45735;-94
2021/09/19 10:41:13;;;;;;;;;14.50;13.75;;;;;;;;4849339;29;45586;-95
2021/09/19 10:43:59;;;;;;;;;16.75;16.75;;;;;;;;4849106;29;44932;-95
2021/09/19 10:49:12;;;;;;;;;19.00;16.00;;;;;;;;4822459;23;45659;-79
2021/09/19 10:51:57;;;;;;;;;17.00;16.00;;;;;;;;4824558;29;45558;-80
2021/09/19 10:54:40;;;;;;;;;16.25;14.50;;;;;;;;4823372;29;45943;-79
2021/09/19 10:57:17;;;;;;;;;19.00;15.50;;;;;;;;4827152;29;46096;-79
2021/09/19 11:02:30;;;;;;;;;17.00;14.50;;;;;;;;5059313;23;45876;-80
2021/09/19 11:05:13;;;;;;;;;21.00;17.25;;;;;;;;4845078;29;47322;-81
2021/09/19 11:07:42;;;;;;;;;20.25;17.50;;;;;;;;4843615;29;45950;-80
2021/09/19 11:10:12;;;;;;;;;18.75;16.75;;;;;;;;4845991;29;45875;-79
2021/09/19 11:12:40;;;;;;;;;16.75;15.50;;;;;;;;4838210;29;45593;-80
2021/09/19 11:15:06;;;;;;;;;16.25;15.75;;;;;;;;4829964;29;45577;-84
2021/09/19 11:17:33;;;;;;;;;20.00;17.25;;;;;;;;4846861;29;46174;-82
2021/09/19 11:20:13;;;;;;;;;17.75;15.75;;;;;;;;4844559;29;45932;-83
2021/09/19 11:22:39;;;;;;;;;16.00;15.00;;;;;;;;4847083;29;45525;-80
2021/09/19 11:25:05;;;;;;;;;20.00;16.75;;;;;;;;4845816;29;45650;-81
2021/09/19 11:27:30;;;;;;;;;18.50;13.75;;;;;;;;4839060;29;49750;-85
2021/09/19 11:29:56;;;;;;;;;17.00;15.00;;;;;;;;4837865;29;45563;-79
2021/09/19 11:32:23;;;;;;;;;15.00;13.25;;;;;;;;4832284;29;45806;-80
2021/09/19 11:34:48;;;;;;;;;17.00;17.00;;;;;;;;4846975;29;46245;-80
2021/09/19 11:37:14;;;;;;;;;22.25;17.50;;;;;;;;4847309;29;45911;-80
2021/09/19 11:39:39;;;;;;;;;17.75;15.50;;;;;;;;4847824;29;45570;-79
2021/09/19 11:42:06;;;;;;;;;15.00;14.25;;;;;;;;4843379;29;45886;-83
2021/09/19 11:44:32;;;;;;;;;18.50;17.00;;;;;;;;4828666;29;45677;-82
2021/09/19 11:46:57;;;;;;;;;20.75;16.25;;;;;;;;4844752;29;48793;-79
2021/09/19 11:49:23;;;;;;;;;15.50;14.75;;;;;;;;4844330;29;45955;-79
2021/09/19 11:51:48;;;;;;;;;21.50;18.25;;;;;;;;4841803;29;45976;-80
2021/09/19 11:54:15;;;;;;;;;17.25;16.50;;;;;;;;4845104;29;45861;-80
2021/09/19 11:56:41;;;;;;;;;25.25;21.50;;;;;;;;4846984;29;45518;-79
2021/09/19 11:59:09;;;;;;;;;16.50;16.50;;;;;;;;4831460;29;45715;-80
2021/09/19 12:01:34;;;;;;;;;16.50;14.50;;;;;;;;4845908;29;45669;-80
2021/09/19 12:04:07;;;;;;;;;15.25;14.50;;;;;;;;4843939;29;45552;-79
2021/09/19 12:06:33;;;;;;;;;15.75;15.75;;;;;;;;4844000;29;46147;-79
2021/09/19 12:08:59;;;;;;;;;20.25;14.75;;;;;;;;4825575;29;46210;-78
2021/09/19 12:11:57;;;;;;;;;16.75;16.50;;;;;;;;4842389;29;45713;-79
2021/09/19 12:14:25;;;;;;;;;18.50;15.50;;;;;;;;4786772;29;45752;-80
2021/09/19 12:17:14;;;;;;;;;18.50;16.00;;;;;;;;4786215;29;46467;-79
2021/09/19 12:19:41;;;;;;;;;16.25;15.50;;;;;;;;4789944;29;45757;-80
2021/09/19 12:22:15;;;;;;;;;21.50;18.50;;;;;;;;4789660;29;45654;-78
2021/09/19 12:24:40;;;;;;;;;16.00;15.25;;;;;;;;4783560;29;45620;-79
2021/09/19 12:27:16;;;;;;;;;16.25;15.25;;;;;;;;4788787;29;45876;-79
2021/09/19 12:29:46;;;;;;;;;17.25;16.25;;;;;;;;4787236;29;46002;-78
2021/09/19 12:32:14;;;;;;;;;18.50;17.50;;;;;;;;4785693;29;46425;-80
2021/09/19 12:34:44;;;;;;;;;15.75;15.25;;;;;;;;4787753;29;45697;-81
2021/09/19 12:37:11;;;;;;;;;22.50;19.75;;;;;;;;4791006;29;45814;-79
2021/09/19 12:39:36;;;;;;;;;15.50;15.50;;;;;;;;4785243;29;46158;-79
2021/09/19 12:42:04;;;;;;;;;18.00;16.75;;;;;;;;4781276;29;49403;-79
2021/09/19 12:44:32;;;;;;;;;20.00;17.00;;;;;;;;4782631;29;45641;-80
2021/09/19 12:46:59;;;;;;;;;18.25;15.50;;;;;;;;4773107;29;45859;-81
2021/09/19 12:49:41;;;;;;;;;19.50;19.25;;;;;;;;4805865;29;46068;-80
2021/09/19 12:52:11;;;;;;;;;17.75;17.75;;;;;;;;4846961;29;45642;-79
2021/09/19 12:54:45;;;;;;;;;17.50;16.00;;;;;;;;4939679;23;53797;-94
2021/09/19 12:57:13;;;;;;;;;20.25;17.50;;;;;;;;4864880;29;45609;-96
2021/09/19 12:59:38;;;;;;;;;17.75;17.75;;;;;;;;4865115;29;45593;-96
2021/09/19 13:02:04;;;;;;;;;18.25;15.75;;;;;;;;4864404;29;45912;-96
2021/09/19 13:04:31;;;;;;;;;20.00;17.00;;;;;;;;4871978;29;44835;-95
2021/09/19 13:07:18;;;;;;;;;22.00;18.00;;;;;;;;4852545;29;47005;-95
2021/09/19 13:09:44;;;;;;;;;18.25;17.50;;;;;;;;4870307;29;45514;-95
2021/09/19 13:12:10;;;;;;;;;19.00;17.25;;;;;;;;4868734;29;45449;-96
2021/09/19 13:14:36;;;;;;;;;19.75;13.50;;;;;;;;4862739;29;45481;-96
2021/09/19 13:17:02;;;;;;;;;16.25;15.00;;;;;;;;4851647;29;47194;-96
2021/09/19 13:22:03;;;;;;;;;22.00;17.00;;;;;;;;5304994;23;45523;-78
2021/09/19 13:24:29;;;;;;;;;14.25;14.25;;;;;;;;4844581;29;45745;-80
2021/09/19 13:26:57;;;;;;;;;18.00;15.50;;;;;;;;4845833;29;45908;-76
2021/09/19 13:29:23;;;;;;;;;17.75;14.00;;;;;;;;4844765;29;45660;-77
2021/09/19 13:31:49;;;;;;;;;15.00;14.00;;;;;;;;4845271;29;45613;-77
2021/09/19 13:34:15;;;;;;;;;11.50;11.50;;;;;;;;4847176;29;45561;-77
2021/09/19 13:36:41;;;;;;;;;13.50;13.50;;;;;;;;4846677;29;46442;-76
2021/09/19 13:39:11;;;;;;;;;16.25;13.50;;;;;;;;4844819;29;46519;-75
2021/09/19 13:41:36;;;;;;;;;18.50;14.50;;;;;;;;4842267;29;45470;-77
2021/09/19 13:44:02;;;;;;;;;18.50;16.25;;;;;;;;4845616;29;45894;-77
2021/09/19 13:46:28;;;;;;;;;17.75;15.75;;;;;;;;4843766;29;46875;-78
2021/09/19 13:48:53;;;;;;;;;17.00;17.00;;;;;;;;5627013;23;46288;-78
2021/09/19 13:51:19;;;;;;;;;14.25;14.25;;;;;;;;4845834;29;46724;-77
2021/09/19 13:53:44;;;;;;;;;15.25;11.50;;;;;;;;4847169;29;45646;-76
2021/09/19 13:56:10;;;;;;;;;15.00;12.00;;;;;;;;4830678;29;45815;-77
2021/09/19 13:58:35;;;;;;;;;16.00;14.25;;;;;;;;4846963;29;45655;-78
2021/09/19 14:01:01;;;;;;;;;16.25;14.00;;;;;;;;4850695;29;45671;-77
2021/09/19 14:03:28;;;;;;;;;16.25;15.75;;;;;;;;4844991;29;45531;-77
2021/09/19 14:05:54;;;;;;;;;14.75;13.75;;;;;;;;4843271;29;46135;-77
2021/09/19 14:08:20;;;;;;;;;16.75;12.25;;;;;;;;4836743;29;45814;-77
2021/09/19 14:10:45;;;;;;;;;18.25;15.00;;;;;;;;4845710;29;45308;-77
2021/09/19 14:13:10;;;;;;;;;16.75;10.75;;;;;;;;4847639;29;45807;-77
2021/09/19 14:15:36;;;;;;;;;19.50;17.25;;;;;;;;4848832;29;45950;-77
2021/09/19 14:18:02;;;;;;;;;15.25;14.25;;;;;;;;4831026;29;45751;-77
2021/09/19 14:20:28;;;;;;;;;16.75;15.00;;;;;;;;4847566;29;47216;-79
2021/09/19 14:22:54;;;;;;;;;16.00;15.00;;;;;;;;4850127;29;45634;-79
2021/09/19 14:25:19;;;;;;;;;14.25;12.00;;;;;;;;4852560;29;46162;-79
2021/09/19 14:27:45;;;;;;;;;14.50;13.50;;;;;;;;4850285;29;46250;-79
2021/09/19 14:30:12;;;;;;;;;16.50;13.00;;;;;;;;4847906;29;45551;-79
2021/09/19 14:32:37;;;;;;;;;19.00;16.25;;;;;;;;4841440;29;45633;-79
2021/09/19 14:35:03;;;;;;;;;13.25;12.00;;;;;;;;4848081;29;45912;-79
2021/09/19 14:37:30;;;;;;;;;15.50;13.50;;;;;;;;4851285;29;45508;-79
2021/09/19 14:39:56;;;;;;;;;15.50;14.75;;;;;;;;4850416;29;45603;-80
2021/09/19 14:42:21;;;;;;;;;16.25;14.25;;;;;;;;4862771;23;45503;-79
2021/09/19 14:44:47;;;;;;;;;18.00;17.25;;;;;;;;4851296;29;45542;-80
2021/09/19 14:47:12;;;;;;;;;12.50;10.25;;;;;;;;4850913;29;45816;-80
2021/09/19 14:49:39;;;;;;;;;11.75;10.00;;;;;;;;4852728;29;45552;-79
2021/09/19 14:52:04;;;;;;;;;14.25;13.75;;;;;;;;4850283;29;45822;-79
2021/09/19 14:54:30;;;;;;;;;13.00;12.00;;;;;;;;4844209;29;45967;-78
2021/09/19 14:56:56;;;;;;;;;17.75;14.75;;;;;;;;4850918;29;46481;-78
2021/09/19 14:59:21;;;;;;;;;11.00;11.00;;;;;;;;4847978;29;45711;-77
2021/09/19 15:01:47;;;;;;;;;16.50;14.50;;;;;;;;4848486;29;45658;-78
2021/09/19 15:04:12;;;;;;;;;16.25;14.75;;;;;;;;4850187;29;45535;-78
2021/09/19 15:06:37;;;;;;;;;16.50;16.50;;;;;;;;4833915;29;45619;-80
2021/09/19 15:09:03;;;;;;;;;14.50;11.25;;;;;;;;4848071;29;46424;-79
2021/09/19 15:11:29;;;;;;;;;9.50;9.25;;;;;;;;4861294;23;45584;-82